Terminal Aerodrome Forecast
Issued by NWS

Current Version | Previous Version | Text Only | Print | Product List | Glossary On
Versions: 1 2 3 4 5 6 7 8 9 10 11 12 13 14 15 16
642
FTUS45 KPIH 050520
TAFSUN
TAF
KSUN 050520Z 0506/0606 26011KT P6SM SCT060 BKN100
     FM050900 32009KT P6SM SCT050
     FM051900 15008KT P6SM BKN080
     FM060300 31008KT P6SM SCT100
      AMD LTD TO CLD VIS AND WIND TIL 051400=

USA.gov is the U.S. government's official web portal to all federal, state and local government web resources and services.